Time;durP1;ratioP1;P1;durP2;ratioP2;P2;SDS_P1;SDS_P2;PMS_P1;PMS_P2;Temp;Humidity;BMP_temperature;BMP_pressure;BME280_temperature;BME280_humidity;BME280_pressure;Samples;Min_cycle;Max_cycle;Signal;HPM_P1;HPM_P2
2023/07/12 00:00:31;;;;;;;3.28;1.30;;;;;;;23.41;84.57;99900.00;8356928;28;20267;-61
2023/07/12 00:04:32;;;;;;;1.55;1.10;;;;;;;23.37;84.80;99872.06;8354826;28;20044;-61
2023/07/12 00:08:32;;;;;;;4.40;1.50;;;;;;;23.36;84.49;99858.50;8372689;28;20044;-61
2023/07/12 00:12:33;;;;;;;4.93;1.13;;;;;;;23.38;83.31;99872.88;8369697;28;20509;-61
2023/07/12 00:16:36;;;;;;;2.38;0.90;;;;;;;23.31;82.18;99872.16;8366957;28;20037;-61
2023/07/12 00:20:37;;;;;;;1.75;0.88;;;;;;;23.23;81.67;99880.78;8363394;28;20112;-61
2023/07/12 00:24:37;;;;;;;2.22;0.80;;;;;;;23.18;81.20;99885.06;8369564;28;20138;-61
2023/07/12 00:28:38;;;;;;;2.53;0.80;;;;;;;23.21;81.21;99873.56;8364767;28;20040;-61
2023/07/12 00:32:39;;;;;;;2.38;0.95;;;;;;;23.14;81.16;99861.81;8365540;28;20044;-61
2023/07/12 00:36:40;;;;;;;3.75;1.23;;;;;;;23.23;80.97;99880.78;8365178;28;20372;-61
2023/07/12 00:44:57;;;;;;;2.42;1.02;;;;;;;23.26;81.31;99924.47;8387749;27;20372;-60
2023/07/12 00:48:58;;;;;;;4.65;1.20;;;;;;;23.32;81.76;99909.75;8384513;27;20032;-61
2023/07/12 00:52:59;;;;;;;1.52;0.95;;;;;;;23.31;82.37;99894.25;8381778;27;20047;-61
2023/07/12 00:56:59;;;;;;;2.67;1.07;;;;;;;23.29;83.33;99857.78;8383534;28;20091;-61
2023/07/12 01:01:02;;;;;;;2.35;1.00;;;;;;;23.15;83.97;99844.19;8376873;27;20294;-61
2023/07/12 01:05:03;;;;;;;1.92;1.02;;;;;;;22.96;89.00;99874.81;8382287;27;20103;-61
2023/07/12 01:09:11;;;;;;;7.97;1.67;;;;;;;22.73;92.19;99908.72;8382879;27;20041;-61
2023/07/12 01:13:11;;;;;;;6.57;1.88;;;;;;;22.45;100.00;99861.56;8381673;27;20039;-62
2023/07/12 01:17:12;;;;;;;7.13;2.00;;;;;;;21.89;100.00;99866.53;8383835;27;20036;-63
2023/07/12 01:21:18;;;;;;;4.82;1.80;;;;;;;21.74;100.00;99863.31;8369214;28;20041;-63
2023/07/12 01:25:36;;;;;;;8.85;1.85;;;;;;;21.65;100.00;99870.16;8368194;28;20048;-63
2023/07/12 01:29:37;;;;;;;4.78;1.70;;;;;;;21.70;100.00;99872.22;8398527;27;20033;-63
2023/07/12 01:33:37;;;;;;;6.90;1.70;;;;;;;21.73;100.00;99902.88;8397200;27;20495;-62
2023/07/12 01:37:38;;;;;;;7.10;1.83;;;;;;;21.83;100.00;99916.97;8398492;28;20029;-62
2023/07/12 01:41:39;;;;;;;3.67;1.65;;;;;;;21.87;100.00;99911.88;8399296;27;20041;-63
2023/07/12 01:45:39;;;;;;;3.95;1.90;;;;;;;21.64;100.00;99912.50;8400896;27;20041;-62
2023/07/12 01:49:40;;;;;;;4.82;2.22;;;;;;;21.40;100.00;99921.59;8398532;27;20513;-62
2023/07/12 01:53:41;;;;;;;6.78;1.67;;;;;;;21.86;100.00;99922.03;8393652;27;20090;-63
2023/07/12 01:57:41;;;;;;;4.57;2.03;;;;;;;21.92;100.00;99923.88;8376461;28;20115;-63
2023/07/12 02:01:42;;;;;;;4.43;1.95;;;;;;;21.93;100.00;99927.47;8373462;28;20528;-63
2023/07/12 02:05:43;;;;;;;3.28;2.03;;;;;;;22.01;100.00;99928.00;8376962;28;20048;-62
2023/07/12 02:10:09;;;;;;;5.47;2.05;;;;;;;21.90;100.00;99923.28;8377873;28;20120;-63
2023/07/12 02:14:09;;;;;;;10.27;2.45;;;;;;;21.89;100.00;99932.59;8355684;28;20049;-63
2023/07/12 02:18:11;;;;;;;4.55;2.05;;;;;;;21.89;100.00;99920.75;8361876;28;20044;-62
2023/07/12 02:22:11;;;;;;;3.05;1.83;;;;;;;21.84;100.00;99929.69;8359178;28;20434;-61
2023/07/12 02:26:12;;;;;;;8.75;2.00;;;;;;;21.66;100.00;99932.38;8360422;28;20150;-61
2023/07/12 02:30:18;;;;;;;5.97;2.28;;;;;;;21.77;100.00;99928.91;8356683;28;20802;-61
2023/07/12 02:34:19;;;;;;;4.20;2.30;;;;;;;21.72;100.00;99941.63;8357033;28;20037;-61
2023/07/12 02:38:19;;;;;;;5.93;2.10;;;;;;;21.70;100.00;99961.13;8359596;28;20036;-62
2023/07/12 02:42:20;;;;;;;5.75;1.77;;;;;;;21.88;100.00;99969.47;8359131;28;20048;-61
2023/07/12 02:46:20;;;;;;;5.05;2.08;;;;;;;21.88;100.00;99985.13;8360278;28;20502;-62
2023/07/12 02:50:21;;;;;;;5.15;1.40;;;;;;;21.86;97.29;99987.28;8357710;28;20139;-61
2023/07/12 02:54:21;;;;;;;3.70;1.25;;;;;;;21.72;94.35;99981.00;8360608;28;20048;-64
2023/07/12 02:58:22;;;;;;;9.75;1.65;;;;;;;21.64;91.51;99989.53;8358583;28;20044;-65
2023/07/12 03:02:23;;;;;;;3.20;1.52;;;;;;;21.52;95.05;100002.34;8355356;28;20562;-63
2023/07/12 03:06:23;;;;;;;5.13;1.55;;;;;;;21.41;94.84;100008.56;8358037;28;20041;-64
2023/07/12 03:10:24;;;;;;;5.72;1.27;;;;;;;21.48;93.11;100017.63;8357762;28;20499;-64
2023/07/12 03:14:25;;;;;;;2.53;0.60;;;;;;;21.33;86.03;100014.34;8333268;28;20045;-64
2023/07/12 03:18:25;;;;;;;6.60;1.13;;;;;;;21.24;85.59;100015.66;8356912;28;20128;-64
2023/07/12 03:22:25;;;;;;;4.05;0.93;;;;;;;20.89;87.01;100022.63;8345736;28;20098;-64
2023/07/12 03:26:26;;;;;;;10.52;1.02;;;;;;;20.78;87.78;100015.03;8340444;28;20086;-63
2023/07/12 03:30:26;;;;;;;9.07;1.00;;;;;;;20.54;90.73;100048.72;8337795;28;20069;-63
2023/07/12 03:34:27;;;;;;;3.53;1.05;;;;;;;20.55;91.35;100042.16;8338900;28;20041;-63
2023/07/12 03:38:30;;;;;;;2.05;0.75;;;;;;;20.54;91.38;100056.97;8342488;28;20388;-64
2023/07/12 03:42:31;;;;;;;3.67;1.20;;;;;;;20.49;91.30;100062.28;8340045;28;20041;-64
2023/07/12 03:46:31;;;;;;;1.92;0.73;;;;;;;20.41;93.75;100035.03;8342106;28;20029;-64
2023/07/12 03:50:32;;;;;;;2.85;0.63;;;;;;;20.24;94.47;100025.56;8339344;28;20047;-64
2023/07/12 03:54:32;;;;;;;2.22;0.80;;;;;;;20.00;100.00;100023.50;8341256;28;20095;-64
2023/07/12 03:58:36;;;;;;;1.38;0.65;;;;;;;20.13;96.50;100018.84;8340613;28;20041;-64
2023/07/12 04:02:36;;;;;;;1.63;0.70;;;;;;;19.98;96.73;100017.38;8351281;28;20098;-64
2023/07/12 04:06:37;;;;;;;1.80;0.82;;;;;;;20.05;98.20;100009.97;8357211;28;20040;-63
2023/07/12 04:10:38;;;;;;;1.20;0.60;;;;;;;20.04;100.00;100000.03;8354456;28;20124;-63
2023/07/12 04:14:38;;;;;;;3.05;0.80;;;;;;;19.78;100.00;99998.19;8357271;28;20041;-63
2023/07/12 04:18:39;;;;;;;2.20;0.73;;;;;;;19.86;100.00;100019.06;8355560;28;20567;-63
2023/07/12 04:22:39;;;;;;;2.87;0.70;;;;;;;19.90;100.00;100023.91;8350984;28;20577;-63
2023/07/12 04:26:40;;;;;;;1.75;0.65;;;;;;;19.89;100.00;100024.13;8355198;28;20275;-63
2023/07/12 04:30:41;;;;;;;2.10;0.80;;;;;;;19.93;100.00;100030.88;8350225;28;20441;-63
2023/07/12 04:34:41;;;;;;;3.03;0.90;;;;;;;19.80;100.00;100025.41;8369035;28;20040;-63
2023/07/12 04:38:42;;;;;;;4.57;0.90;;;;;;;19.76;100.00;100024.16;8356835;28;20154;-63
2023/07/12 04:42:43;;;;;;;1.98;1.10;;;;;;;20.02;100.00;100024.97;8354077;28;20146;-63
2023/07/12 04:46:44;;;;;;;2.35;1.00;;;;;;;20.09;100.00;100042.25;8350064;28;20041;-63
2023/07/12 04:50:44;;;;;;;3.38;1.00;;;;;;;19.93;100.00;100041.84;8352664;28;20403;-63
2023/07/12 04:54:45;;;;;;;1.52;0.80;;;;;;;19.69;100.00;100040.59;8355651;28;20120;-63
2023/07/12 04:58:46;;;;;;;3.25;0.90;;;;;;;19.77;100.00;100051.38;8355305;28;20036;-63
2023/07/12 05:02:47;;;;;;;1.75;1.08;;;;;;;20.24;100.00;100066.75;8350882;28;20052;-64
2023/07/12 05:06:47;;;;;;;2.20;0.82;;;;;;;20.35;99.09;100074.34;8354543;28;20504;-64
2023/07/12 05:10:48;;;;;;;1.77;0.60;;;;;;;20.16;98.11;100077.97;8358320;28;20499;-63
2023/07/12 05:14:49;;;;;;;1.15;0.65;;;;;;;20.08;98.41;100079.00;8353599;28;20466;-63
2023/07/12 05:18:49;;;;;;;1.58;0.60;;;;;;;20.37;96.93;100085.97;8356488;28;20125;-63
2023/07/12 05:22:49;;;;;;;2.50;0.95;;;;;;;20.37;96.03;100084.06;8353948;28;20044;-63
2023/07/12 05:26:50;;;;;;;2.78;0.60;;;;;;;20.42;97.27;100087.00;8353391;28;20033;-63
2023/07/12 05:30:50;;;;;;;1.65;0.80;;;;;;;20.41;95.06;100101.81;8355214;28;20044;-63
2023/07/12 05:34:51;;;;;;;1.40;0.68;;;;;;;20.60;99.53;100111.91;8347496;28;20450;-63
2023/07/12 05:38:51;;;;;;;1.00;0.40;;;;;;;20.56;93.10;100132.59;8355640;28;20036;-63
2023/07/12 05:42:52;;;;;;;2.03;0.60;;;;;;;20.70;94.21;100136.16;8356216;28;20041;-64
2023/07/12 05:46:52;;;;;;;1.05;0.50;;;;;;;20.70;94.59;100147.16;8359017;28;20132;-63
2023/07/12 05:50:54;;;;;;;1.13;0.55;;;;;;;20.67;92.98;100155.81;8357364;28;20495;-63
2023/07/12 05:54:55;;;;;;;2.10;0.60;;;;;;;20.59;93.46;100154.16;8361430;28;20131;-63
2023/07/12 05:58:55;;;;;;;2.05;0.80;;;;;;;20.64;93.39;100162.59;8361069;28;20094;-63
2023/07/12 06:02:56;;;;;;;2.17;0.82;;;;;;;20.68;92.19;100163.03;8354756;28;20129;-63
2023/07/12 06:06:56;;;;;;;2.13;0.88;;;;;;;20.74;91.89;100162.19;8361628;28;20036;-63
2023/07/12 06:10:56;;;;;;;2.53;0.70;;;;;;;20.95;92.55;100170.19;8358950;28;20060;-64
2023/07/12 06:14:57;;;;;;;2.85;0.70;;;;;;;21.09;90.98;100177.31;8360357;28;20033;-63
2023/07/12 06:18:58;;;;;;;4.53;0.90;;;;;;;21.35;90.00;100169.00;8355801;28;20041;-63
2023/07/12 06:22:58;;;;;;;1.15;0.65;;;;;;;22.19;88.39;100164.00;8359092;28;20084;-63
2023/07/12 06:26:59;;;;;;;1.67;0.90;;;;;;;22.47;83.81;100157.00;8360093;28;20118;-64
2023/07/12 06:31:02;;;;;;;1.20;0.70;;;;;;;22.38;84.96;100161.09;8354154;28;20057;-64
2023/07/12 06:35:03;;;;;;;1.63;0.75;;;;;;;22.65;83.66;100154.31;8357639;28;20366;-64
2023/07/12 06:39:03;;;;;;;2.97;0.75;;;;;;;22.70;83.22;100154.47;8360251;28;20035;-63
2023/07/12 06:43:04;;;;;;;1.05;0.50;;;;;;;22.45;82.17;100153.63;8356618;28;20045;-64
2023/07/12 06:47:04;;;;;;;2.53;0.82;;;;;;;22.58;82.70;100163.72;8358996;28;20044;-64
2023/07/12 06:51:05;;;;;;;3.28;0.80;;;;;;;22.67;80.91;100163.22;8358299;28;20036;-62
2023/07/12 06:55:06;;;;;;;1.40;0.80;;;;;;;22.52;81.32;100170.13;8357175;28;20056;-62
2023/07/12 06:59:08;;;;;;;2.22;0.90;;;;;;;22.33;82.38;100174.72;8358276;28;20037;-63
2023/07/12 07:03:09;;;;;;;2.72;1.08;;;;;;;22.50;82.52;100175.88;8353351;28;20037;-63
2023/07/12 07:07:10;;;;;;;4.95;1.20;;;;;;;22.64;79.87;100174.69;8359653;28;20135;-63
2023/07/12 07:11:10;;;;;;;4.68;1.13;;;;;;;22.59;80.77;100182.78;8356487;28;20041;-63
2023/07/12 07:15:10;;;;;;;3.42;0.95;;;;;;;22.49;80.24;100176.91;8357589;28;20038;-63
2023/07/12 07:19:11;;;;;;;1.38;0.73;;;;;;;22.44;80.05;100179.47;8373062;28;20123;-63
2023/07/12 07:23:12;;;;;;;2.58;1.00;;;;;;;22.54;78.72;100182.59;8366698;28;20041;-64
2023/07/12 07:27:12;;;;;;;2.05;0.85;;;;;;;22.78;76.92;100195.53;8357921;28;20112;-64
2023/07/12 07:31:13;;;;;;;6.22;0.93;;;;;;;22.99;75.61;100194.25;8351916;28;20056;-64
2023/07/12 07:35:13;;;;;;;4.53;0.90;;;;;;;22.82;75.36;100210.56;8354840;28;20131;-63
2023/07/12 07:39:14;;;;;;;3.40;1.05;;;;;;;23.01;75.37;100217.78;8354719;28;20553;-63
2023/07/12 07:43:14;;;;;;;5.63;1.33;;;;;;;23.01;75.24;100215.03;8356103;28;20498;-64
2023/07/12 07:47:15;;;;;;;1.27;0.50;;;;;;;23.16;73.87;100207.22;8359371;28;20064;-63
2023/07/12 07:51:16;;;;;;;6.82;0.80;;;;;;;23.33;71.66;100198.34;8357014;28;20287;-64
2023/07/12 07:55:16;;;;;;;3.85;0.60;;;;;;;23.65;70.89;100199.84;8355570;28;20076;-64
2023/07/12 07:59:17;;;;;;;0.88;0.55;;;;;;;23.76;68.86;100199.06;8356612;28;20132;-63
2023/07/12 08:03:18;;;;;;;2.30;0.67;;;;;;;23.89;67.42;100196.09;8353703;28;20037;-64
2023/07/12 08:07:19;;;;;;;5.20;0.80;;;;;;;24.12;67.21;100193.47;8354200;28;20292;-63
2023/07/12 08:11:19;;;;;;;2.53;0.70;;;;;;;24.29;65.89;100199.97;8358047;28;20048;-64
2023/07/12 08:15:20;;;;;;;3.92;0.93;;;;;;;24.11;65.14;100194.53;8354030;28;20044;-63
2023/07/12 08:19:22;;;;;;;4.60;0.60;;;;;;;24.42;67.97;100194.22;8352742;28;20523;-64
2023/07/12 08:23:23;;;;;;;6.18;1.20;;;;;;;24.33;67.81;100203.94;8355670;28;20045;-63
2023/07/12 08:27:23;;;;;;;1.88;0.93;;;;;;;24.72;67.89;100208.84;8353414;28;20091;-64
2023/07/12 08:31:24;;;;;;;3.03;0.63;;;;;;;24.43;66.62;100213.34;8347014;28;20548;-64
2023/07/12 08:35:24;;;;;;;12.40;1.75;;;;;;;24.14;67.40;100221.69;8358850;28;22934;-64
2023/07/12 08:39:24;;;;;;;1.73;1.00;;;;;;;23.89;67.09;100216.28;8353729;28;20482;-63
2023/07/12 08:43:31;;;;;;;4.65;0.85;;;;;;;23.80;66.75;100214.06;8354595;28;20291;-64
2023/07/12 08:47:39;;;;;;;2.65;0.90;;;;;;;24.19;64.96;100216.31;8354437;28;20037;-63
2023/07/12 08:51:40;;;;;;;4.05;1.00;;;;;;;24.27;64.50;100213.19;8349111;28;20044;-64
2023/07/12 08:55:41;;;;;;;2.00;0.70;;;;;;;24.57;63.25;100217.56;8354289;28;20047;-64
2023/07/12 08:59:43;;;;;;;2.90;0.88;;;;;;;24.82;61.62;100211.84;8352749;28;20254;-63
2023/07/12 09:03:43;;;;;;;3.40;1.10;;;;;;;24.48;62.02;100218.16;8351662;28;20049;-63
2023/07/12 09:07:59;;;;;;;3.13;0.80;;;;;;;24.43;61.76;100226.34;8360063;28;20084;-63
2023/07/12 09:12:01;;;;;;;3.30;0.75;;;;;;;24.59;60.91;100220.09;8361525;28;20036;-64
2023/07/12 09:16:03;;;;;;;2.85;0.70;;;;;;;24.85;61.57;100203.06;8357894;28;20040;-63
2023/07/12 09:20:21;;;;;;;2.97;0.73;;;;;;;24.97;60.80;100204.75;8357893;28;20033;-64
2023/07/12 09:24:26;;;;;;;3.85;1.00;;;;;;;25.51;61.52;100222.88;8353186;28;20049;-63
2023/07/12 09:28:27;;;;;;;7.20;1.35;;;;;;;25.40;61.03;100222.91;8352608;28;20453;-64
2023/07/12 09:32:32;;;;;;;6.00;1.00;;;;;;;25.24;60.84;100227.22;8350204;28;20052;-64
2023/07/12 09:36:38;;;;;;;6.38;1.15;;;;;;;25.72;60.81;100233.31;8359418;28;20120;-64
2023/07/12 09:40:42;;;;;;;6.03;0.90;;;;;;;25.38;59.41;100223.16;8355639;28;20504;-64
2023/07/12 09:44:45;;;;;;;3.95;0.90;;;;;;;25.38;59.36;100225.94;8358280;28;20045;-64
2023/07/12 09:48:52;;;;;;;4.03;0.70;;;;;;;25.41;59.01;100225.44;8358424;28;20516;-64
2023/07/12 09:57:18;;;;;;;1.95;0.80;;;;;;;25.58;58.32;100231.88;8313748;28;20899;-64
2023/07/12 10:01:45;;;;;;;3.83;1.30;;;;;;;26.16;57.59;100227.00;8314830;28;20056;-63
2023/07/12 10:06:08;;;;;;;10.40;1.02;;;;;;;27.19;56.30;100229.28;8311592;28;20041;-64
2023/07/12 10:10:19;;;;;;;4.55;0.80;;;;;;;27.86;53.96;100240.00;8305060;28;20499;-64
2023/07/12 10:14:24;;;;;;;3.20;0.80;;;;;;;27.69;53.97;100244.75;8313122;28;20034;-64
2023/07/12 10:18:28;;;;;;;6.63;1.15;;;;;;;29.34;51.43;100234.44;8315389;28;20069;-64
2023/07/12 10:22:35;;;;;;;4.60;0.70;;;;;;;29.50;50.34;100238.97;8314516;28;20044;-64
2023/07/12 10:26:35;;;;;;;3.78;0.70;;;;;;;30.59;48.47;100238.81;8315058;28;20433;-62
2023/07/12 10:30:38;;;;;;;3.90;1.15;;;;;;;30.82;48.27;100246.66;8315587;28;20133;-63
2023/07/12 10:34:44;;;;;;;3.58;0.60;;;;;;;31.62;45.07;100236.19;8314718;28;20128;-63
2023/07/12 10:38:47;;;;;;;1.73;0.70;;;;;;;30.69;46.73;100247.19;8311611;28;20061;-64
2023/07/12 10:42:53;;;;;;;6.00;1.27;;;;;;;28.37;50.50;100244.19;8312526;28;20420;-64
2023/07/12 10:46:58;;;;;;;3.75;0.90;;;;;;;31.13;46.75;100237.16;8313148;28;20126;-64
2023/07/12 10:51:17;;;;;;;3.58;0.80;;;;;;;32.19;44.67;100232.88;8313006;28;20059;-64
2023/07/12 10:55:36;;;;;;;3.50;0.98;;;;;;;29.95;49.08;100236.41;8312160;28;20117;-64
2023/07/12 10:59:44;;;;;;;4.43;1.00;;;;;;;29.37;50.92;100242.25;8310093;28;20127;-64
2023/07/12 11:03:47;;;;;;;5.65;0.60;;;;;;;30.48;47.50;100237.09;8312032;28;20424;-64
2023/07/12 11:07:48;;;;;;;3.45;0.90;;;;;;;28.26;50.48;100239.59;8294304;28;20037;-65
2023/07/12 11:11:57;;;;;;;3.15;0.77;;;;;;;28.44;50.84;100239.22;8290368;28;20107;-65
2023/07/12 11:16:12;;;;;;;2.55;0.73;;;;;;;27.87;50.62;100232.50;8290555;28;20519;-64
2023/07/12 11:20:22;;;;;;;1.55;1.00;;;;;;;28.62;48.92;100241.66;8293236;28;20088;-64
2023/07/12 11:24:29;;;;;;;3.90;0.70;;;;;;;30.77;47.12;100238.28;8290110;28;20046;-64
2023/07/12 11:28:45;;;;;;;3.15;0.60;;;;;;;31.71;44.00;100239.25;8289934;28;20107;-64
2023/07/12 11:32:48;;;;;;;4.03;0.70;;;;;;;31.38;44.14;100239.91;8287558;28;20030;-64
2023/07/12 11:36:54;;;;;;;3.13;0.70;;;;;;;29.21;47.79;100248.81;8289423;28;20144;-64
2023/07/12 11:40:57;;;;;;;2.72;0.90;;;;;;;30.03;47.02;100244.25;8289885;28;20054;-64
2023/07/12 11:45:02;;;;;;;2.30;0.75;;;;;;;32.21;44.93;100237.03;8289718;28;20044;-65
2023/07/12 11:49:16;;;;;;;4.97;1.05;;;;;;;32.74;43.69;100240.91;8288936;28;20045;-64
2023/07/12 11:53:17;;;;;;;;;;;;;;;32.15;43.76;100245.78;8289366;28;20033;-64
2023/07/12 11:57:17;;;;;;;7.93;0.80;;;;;;;30.70;46.59;100243.28;8288743;28;20345;-66
2023/07/12 12:01:21;;;;;;;4.70;1.53;;;;;;;31.82;44.51;100240.91;8288647;28;20042;-66
2023/07/12 12:05:27;;;;;;;4.80;0.70;;;;;;;32.64;43.27;100246.59;8288626;28;20296;-67
2023/07/12 12:09:32;;;;;;;2.45;0.80;;;;;;;33.14;42.59;100250.94;8288990;28;20041;-67
2023/07/12 12:13:33;;;;;;;6.32;0.88;;;;;;;32.45;42.82;100242.81;8288126;28;20145;-67
2023/07/12 12:17:36;;;;;;;4.20;0.50;;;;;;;30.46;44.83;100256.09;8287850;28;20046;-66
2023/07/12 12:22:06;;;;;;;3.45;0.75;;;;;;;29.27;46.67;100250.53;8277483;28;20439;-66
2023/07/12 12:26:28;;;;;;;2.95;0.60;;;;;;;28.09;48.60;100247.22;8284724;28;20026;-66
2023/07/12 12:30:29;;;;;;;5.28;0.80;;;;;;;27.32;50.51;100253.97;8287923;28;20049;-67
2023/07/12 12:34:43;;;;;;;4.40;0.75;;;;;;;27.64;50.04;100241.06;8287562;28;20049;-66
2023/07/12 12:38:56;;;;;;;8.93;0.65;;;;;;;27.71;50.04;100238.94;8283148;28;20136;-66
2023/07/12 12:42:59;;;;;;;2.97;0.85;;;;;;;27.40;50.08;100231.28;8286099;28;20045;-67
2023/07/12 12:47:11;;;;;;;2.83;0.63;;;;;;;27.15;51.84;100247.56;8287131;28;20038;-67
2023/07/12 12:51:12;;;;;;;6.82;0.93;;;;;;;27.26;52.11;100241.09;8287065;28;20471;-67
2023/07/12 12:55:13;;;;;;;3.63;0.75;;;;;;;26.98;53.77;100239.25;8286540;28;20084;-67
2023/07/12 12:59:16;;;;;;;5.60;0.82;;;;;;;27.37;52.30;100226.25;8287445;28;20045;-67
2023/07/12 13:03:16;;;;;;;3.03;0.57;;;;;;;27.43;52.65;100219.66;8286478;28;20033;-67
2023/07/12 13:07:26;;;;;;;2.63;0.70;;;;;;;27.69;51.17;100221.69;8287054;28;20045;-67
2023/07/12 13:11:27;;;;;;;2.42;0.43;;;;;;;27.75;50.64;100223.44;8278400;28;20042;-67
2023/07/12 13:15:27;;;;;;;5.45;0.68;;;;;;;27.58;48.97;100204.06;8285103;28;20043;-67
2023/07/12 13:19:27;;;;;;;3.50;0.70;;;;;;;27.72;50.35;100229.50;8287035;28;20042;-67
2023/07/12 13:23:28;;;;;;;2.80;0.50;;;;;;;27.83;51.22;100214.63;8285252;28;20049;-67
2023/07/12 13:27:32;;;;;;;5.43;1.00;;;;;;;27.71;50.62;100216.69;8286725;28;20745;-67
2023/07/12 13:31:33;;;;;;;3.20;0.40;;;;;;;27.82;49.36;100222.13;8285234;28;20185;-67
2023/07/12 13:35:34;;;;;;;3.88;0.50;;;;;;;27.92;50.00;100225.06;8285415;28;20118;-67
2023/07/12 13:39:35;;;;;;;4.45;0.50;;;;;;;27.66;48.34;100230.53;8286240;28;20040;-67
2023/07/12 13:43:35;;;;;;;4.25;0.65;;;;;;;27.35;49.17;100214.59;8285634;28;20246;-66
2023/07/12 13:47:36;;;;;;;7.43;0.80;;;;;;;27.68;49.12;100217.22;8285982;28;20030;-66
2023/07/12 13:51:37;;;;;;;2.90;0.77;;;;;;;27.68;49.10;100217.22;8285577;28;20495;-67
2023/07/12 13:55:37;;;;;;;6.13;0.55;;;;;;;27.73;50.22;100231.19;8284587;28;20042;-67
2023/07/12 13:59:39;;;;;;;27.50;1.58;;;;;;;27.50;48.91;100220.34;8275789;28;20038;-66
2023/07/12 14:03:41;;;;;;;5.07;0.98;;;;;;;27.52;48.50;100234.78;8282240;28;20057;-65
2023/07/12 14:07:43;;;;;;;3.03;0.50;;;;;;;27.68;47.94;100225.56;8287394;28;20034;-65
2023/07/12 14:11:43;;;;;;;14.35;0.98;;;;;;;27.48;48.43;100233.63;8287156;28;20050;-65
2023/07/12 14:15:44;;;;;;;4.00;0.70;;;;;;;27.60;48.96;100226.84;8286573;28;20520;-65
2023/07/12 14:19:46;;;;;;;4.13;0.60;;;;;;;27.60;50.00;100218.50;8266871;28;20039;-65
2023/07/12 14:23:48;;;;;;;10.95;1.20;;;;;;;27.79;49.80;100230.16;8281929;28;20030;-65
2023/07/12 14:27:49;;;;;;;3.92;0.63;;;;;;;27.97;48.49;100238.19;8287272;28;20038;-65
2023/07/12 14:31:49;;;;;;;2.17;0.60;;;;;;;27.67;48.33;100243.31;8286157;28;20425;-65
2023/07/12 14:35:49;;;;;;;1.90;0.70;;;;;;;27.46;48.12;100241.38;8286660;28;20092;-65
2023/07/12 14:39:50;;;;;;;5.43;0.80;;;;;;;27.36;48.35;100235.69;8286663;28;20854;-65
2023/07/12 14:43:51;;;;;;;5.50;0.73;;;;;;;27.16;47.91;100247.31;8292503;28;20387;-65
2023/07/12 14:47:51;;;;;;;5.30;0.82;;;;;;;27.02;47.87;100239.59;8292333;28;20033;-65
2023/07/12 14:51:52;;;;;;;4.80;0.80;;;;;;;27.47;47.66;100231.97;8288467;28;20049;-65
2023/07/12 14:55:52;;;;;;;3.87;0.70;;;;;;;27.67;46.25;100226.66;8292284;28;20444;-65
2023/07/12 14:59:53;;;;;;;1.45;0.70;;;;;;;27.47;47.17;100237.53;8292332;28;20281;-65
2023/07/12 15:03:56;;;;;;;8.25;0.90;;;;;;;27.21;47.36;100232.66;8291038;28;20044;-65
2023/07/12 15:07:56;;;;;;;1.52;0.60;;;;;;;27.24;46.66;100232.16;8274977;28;20163;-65
2023/07/12 15:11:57;;;;;;;5.10;0.55;;;;;;;27.16;46.86;100232.56;8282624;28;20057;-65
2023/07/12 15:15:57;;;;;;;7.68;0.70;;;;;;;27.09;47.38;100223.59;8261432;28;20461;-65
2023/07/12 15:19:58;;;;;;;6.63;0.80;;;;;;;27.54;46.29;100215.94;8278675;28;20053;-65
2023/07/12 15:23:58;;;;;;;10.10;0.70;;;;;;;27.77;46.69;100221.22;8285156;28;20046;-58
2023/07/12 15:27:58;;;;;;;7.75;0.90;;;;;;;27.84;45.81;100216.31;8284002;28;20286;-63
2023/07/12 15:32:00;;;;;;;4.03;0.65;;;;;;;27.88;45.29;100225.84;8287935;28;20559;-60
2023/07/12 15:36:02;;;;;;;2.08;0.70;;;;;;;27.82;46.36;100212.94;8286656;28;20061;-60
2023/07/12 15:40:06;;;;;;;6.97;1.92;;;;;;;27.75;45.79;100217.88;8284859;28;20095;-60
2023/07/12 15:44:08;;;;;;;3.28;0.65;;;;;;;27.61;45.02;100200.75;8283837;28;20286;-61
2023/07/12 15:48:13;;;;;;;8.27;0.60;;;;;;;27.70;45.80;100206.69;8285775;28;20057;-60
2023/07/12 15:52:19;;;;;;;4.47;0.65;;;;;;;27.74;45.10;100217.03;8284667;28;20112;-68
2023/07/12 15:56:22;;;;;;;4.53;0.65;;;;;;;27.56;45.12;100210.94;8286436;28;20050;-60
2023/07/12 16:00:25;;;;;;;7.97;0.57;;;;;;;27.57;45.08;100209.88;8286607;28;20435;-62
2023/07/12 16:04:26;;;;;;;1.50;0.57;;;;;;;27.56;46.02;100213.72;8285657;28;20046;-63
2023/07/12 16:08:27;;;;;;;1.48;0.60;;;;;;;27.73;46.01;100209.81;8285505;28;20093;-59
2023/07/12 16:12:28;;;;;;;10.80;0.88;;;;;;;27.76;45.05;100202.88;8279845;28;20081;-60
2023/07/12 16:16:31;;;;;;;2.90;0.63;;;;;;;27.64;45.59;100207.72;8284259;28;20056;-60
2023/07/12 16:20:31;;;;;;;3.55;0.60;;;;;;;27.55;45.35;100217.59;8285277;28;20073;-60
2023/07/12 16:24:32;;;;;;;3.28;0.50;;;;;;;27.28;45.90;100216.69;8283520;28;20038;-64
2023/07/12 16:28:34;;;;;;;5.78;0.65;;;;;;;27.10;46.04;100219.72;8272640;28;20034;-67
2023/07/12 16:32:34;;;;;;;2.15;0.60;;;;;;;26.78;47.16;100228.66;8280702;28;20042;-66
2023/07/12 16:36:35;;;;;;;14.23;1.00;;;;;;;26.87;47.49;100231.88;8283896;28;20049;-60
2023/07/12 16:40:36;;;;;;;15.00;1.13;;;;;;;26.42;47.16;100234.69;8280660;28;20338;-67
2023/07/12 16:44:36;;;;;;;0.95;0.57;;;;;;;26.27;48.09;100231.66;8280474;28;20129;-66
2023/07/12 16:48:37;;;;;;;2.93;0.80;;;;;;;26.41;47.82;100237.72;8280666;28;20033;-66
2023/07/12 16:52:37;;;;;;;1.77;0.52;;;;;;;26.47;48.46;100237.53;8279450;28;20356;-67
2023/07/12 16:56:38;;;;;;;2.40;0.67;;;;;;;26.41;47.04;100227.44;8284168;28;20049;-67
2023/07/12 17:00:40;;;;;;;2.35;0.52;;;;;;;26.22;47.82;100231.53;8283077;28;20281;-68
2023/07/12 17:04:41;;;;;;;5.05;0.50;;;;;;;26.22;48.76;100237.09;8277117;28;20041;-67
2023/07/12 17:08:42;;;;;;;2.30;0.60;;;;;;;26.19;48.14;100233.97;8283726;28;20041;-67
2023/07/12 17:12:42;;;;;;;2.95;0.88;;;;;;;26.18;49.01;100233.13;8280855;28;20092;-67
2023/07/12 17:16:44;;;;;;;3.38;0.57;;;;;;;26.21;49.43;100243.72;8280427;28;20050;-67
2023/07/12 17:20:45;;;;;;;1.75;0.47;;;;;;;26.00;49.55;100244.44;8279765;28;20474;-67
2023/07/12 17:24:48;;;;;;;6.30;0.80;;;;;;;25.80;49.63;100230.13;8278224;28;20474;-67
2023/07/12 17:28:48;;;;;;;2.60;0.47;;;;;;;25.77;49.72;100232.56;8282892;28;20124;-67
2023/07/12 17:32:48;;;;;;;2.10;0.52;;;;;;;25.83;50.22;100234.34;8281241;28;20034;-67
2023/07/12 17:36:49;;;;;;;2.45;0.40;;;;;;;25.88;50.08;100232.50;8280522;28;20216;-67
2023/07/12 17:40:53;;;;;;;2.95;0.55;;;;;;;25.98;50.51;100243.81;8282958;28;20042;-67
2023/07/12 17:44:54;;;;;;;2.03;0.60;;;;;;;25.99;50.72;100239.97;8278569;28;20103;-68
2023/07/12 17:48:54;;;;;;;3.50;0.60;;;;;;;25.97;50.64;100238.50;8280247;28;20532;-67
2023/07/12 17:52:54;;;;;;;2.28;0.85;;;;;;;25.79;51.92;100239.53;8278984;28;20268;-67
2023/07/12 17:56:55;;;;;;;1.98;0.50;;;;;;;25.53;51.59;100240.09;8279647;28;20464;-69
2023/07/12 18:00:56;;;;;;;5.25;0.70;;;;;;;25.42;51.95;100232.66;8280293;28;20041;-67
2023/07/12 18:04:56;;;;;;;2.28;0.47;;;;;;;25.29;51.87;100243.97;8276074;28;20062;-67
2023/07/12 18:08:56;;;;;;;1.93;0.50;;;;;;;25.21;51.82;100238.78;8281538;28;20038;-67
2023/07/12 18:12:58;;;;;;;2.75;0.63;;;;;;;25.15;52.17;100248.03;8278143;28;20285;-67
2023/07/12 18:16:59;;;;;;;3.67;0.60;;;;;;;25.09;52.54;100254.53;8279831;28;20053;-67
2023/07/12 18:20:59;;;;;;;2.08;0.40;;;;;;;25.10;52.71;100256.25;8287790;28;20514;-68
2023/07/12 18:25:00;;;;;;;1.33;0.45;;;;;;;25.14;53.09;100262.97;8285784;28;20519;-67
2023/07/12 18:29:00;;;;;;;2.30;0.50;;;;;;;25.14;52.63;100260.22;8284235;28;20565;-67
2023/07/12 18:33:02;;;;;;;1.83;0.50;;;;;;;25.01;52.89;100263.22;8286640;28;20041;-68
2023/07/12 18:37:10;;;;;;;2.20;0.80;;;;;;;24.93;52.25;100255.28;8286127;28;20045;-69
2023/07/12 18:41:15;;;;;;;3.47;0.50;;;;;;;24.92;52.33;100265.50;8284226;28;20096;-68
2023/07/12 18:45:24;;;;;;;;;;;;;;;24.86;52.42;100260.09;8286635;28;20042;-67
2023/07/12 18:49:25;;;;;;;3.05;0.75;;;;;;;24.79;51.25;100264.88;8286776;28;20334;-67
2023/07/12 18:53:25;;;;;;;4.57;0.60;;;;;;;24.74;51.80;100273.06;8284017;28;20152;-67
2023/07/12 18:57:25;;;;;;;1.30;0.43;;;;;;;24.72;51.78;100269.69;8283232;28;20492;-67